createdAt,value
2019-03-01T00:01:59.750Z,25.88
2019-03-01T00:05:00.629Z,33.63
2019-03-01T00:11:31.538Z,27.15
2019-03-01T00:14:36.266Z,25.65
2019-03-01T00:17:48.193Z,26.57
2019-03-01T00:20:42.615Z,26.00
2019-03-01T00:23:47.786Z,27.05
2019-03-01T00:27:03.673Z,27.22
2019-03-01T00:29:47.916Z,27.07
2019-03-01T00:33:00.437Z,26.10
2019-03-01T00:35:56.133Z,28.93
2019-03-01T00:38:54.290Z,24.23
2019-03-01T00:41:43.477Z,27.87
2019-03-01T00:44:44.062Z,25.52
2019-03-01T00:47:13.541Z,25.08
2019-03-01T00:49:42.816Z,27.50
2019-03-01T00:52:12.438Z,29.07
2019-03-01T00:54:41.767Z,31.93
2019-03-01T00:57:11.066Z,24.72
2019-03-01T00:59:40.357Z,24.77
2019-03-01T01:02:09.615Z,28.07
2019-03-01T01:04:38.918Z,29.07
2019-03-01T01:07:08.231Z,29.15
2019-03-01T01:09:37.529Z,31.57
2019-03-01T01:12:06.971Z,31.68
2019-03-01T01:14:36.231Z,28.90
2019-03-01T01:17:05.573Z,28.85
2019-03-01T01:19:34.838Z,32.17
2019-03-01T01:22:04.223Z,33.63
2019-03-01T01:24:33.533Z,32.88
2019-03-01T01:27:02.822Z,31.70
2019-03-01T01:29:32.094Z,30.85
2019-03-01T01:32:01.340Z,29.07
2019-03-01T01:34:30.660Z,31.07
2019-03-01T01:36:59.986Z,32.23
2019-03-01T01:39:29.268Z,26.27
2019-03-01T01:41:58.752Z,33.33
2019-03-01T01:44:27.990Z,33.65
2019-03-01T01:46:57.306Z,33.02
2019-03-01T01:49:26.555Z,33.02
2019-03-01T01:51:55.855Z,32.40
2019-03-01T01:54:25.084Z,34.10
2019-03-01T01:56:54.408Z,30.90
2019-03-01T01:59:23.645Z,34.65
2019-03-01T02:01:52.978Z,35.48
2019-03-01T02:04:22.217Z,30.15
2019-03-01T02:06:51.479Z,30.95
2019-03-01T02:09:26.302Z,34.55
2019-03-01T02:11:55.926Z,31.83
2019-03-01T02:14:25.212Z,28.47
2019-03-01T02:16:54.498Z,28.90
2019-03-01T02:19:23.760Z,28.47
2019-03-01T02:21:53.087Z,32.33
2019-03-01T02:24:22.352Z,32.60
2019-03-01T02:26:53.088Z,29.18
2019-03-01T02:29:22.376Z,32.58
2019-03-01T02:31:59.181Z,28.85
2019-03-01T02:34:28.443Z,29.65
2019-03-01T02:50:31.645Z,29.30
2019-03-01T02:53:30.566Z,30.60
2019-03-01T02:56:32.503Z,28.42
2019-03-01T02:59:31.705Z,29.42
2019-03-01T03:02:33.961Z,27.73
2019-03-01T03:05:35.783Z,30.62
2019-03-01T03:08:31.794Z,31.10
2019-03-01T03:11:33.977Z,30.77
2019-03-01T03:14:32.898Z,30.88
2019-03-01T03:17:32.008Z,30.65
2019-03-01T03:20:34.097Z,29.95
2019-03-01T03:23:33.250Z,32.00
2019-03-01T03:26:32.398Z,29.80
2019-03-01T03:29:34.408Z,28.15
2019-03-01T04:08:34.505Z,28.20
2019-03-01T04:11:33.755Z,32.50
2019-03-01T04:14:32.801Z,32.05
2019-03-01T04:17:31.708Z,30.52
2019-03-01T04:20:33.916Z,29.80
2019-03-01T04:43:29.532Z,32.50
2019-03-01T04:59:29.575Z,38.05
2019-03-01T05:17:34.154Z,39.18
2019-03-01T05:20:33.052Z,43.65
2019-03-01T05:23:31.991Z,39.78
2019-03-01T05:26:31.070Z,40.10
2019-03-01T05:29:29.954Z,42.62
2019-03-01T05:31:59.209Z,43.05
2019-03-01T05:34:28.485Z,41.77
2019-03-01T05:36:57.804Z,43.17
2019-03-01T05:39:32.997Z,43.52
2019-03-01T05:42:02.293Z,43.83
2019-03-01T05:44:31.569Z,46.05
2019-03-01T05:47:00.847Z,48.70
2019-03-01T05:49:30.110Z,48.83
2019-03-01T05:51:59.340Z,48.08
2019-03-01T05:54:28.603Z,54.33
2019-03-01T05:56:57.842Z,51.70
2019-03-01T05:59:28.691Z,58.87
2019-03-01T06:02:37.936Z,56.10
2019-03-01T06:05:17.602Z,58.96
2019-03-01T06:08:22.201Z,55.83
2019-03-01T06:11:19.734Z,58.75
2019-03-01T06:14:18.441Z,60.90
2019-03-01T06:17:14.403Z,59.70
2019-03-01T06:20:11.666Z,57.10
2019-03-01T06:23:11.669Z,61.53
2019-03-01T06:26:15.302Z,59.08
2019-03-01T06:29:00.267Z,61.73
2019-03-01T06:31:56.749Z,67.62
2019-03-01T06:34:42.315Z,67.30
2019-03-01T06:37:22.676Z,71.00
2019-03-01T06:40:17.365Z,74.12
2019-03-01T06:43:01.387Z,77.42
2019-03-01T06:46:03.267Z,72.30
2019-03-01T06:48:51.482Z,78.55
2019-03-01T06:57:47.670Z,97.60
2019-03-01T07:00:39.447Z,108.70
2019-03-01T07:03:32.269Z,113.72
2019-03-01T07:06:34.242Z,141.53
2019-03-01T07:09:33.034Z,145.90
2019-03-01T07:12:32.054Z,163.62
2019-03-01T07:15:34.100Z,167.98
2019-03-01T07:18:33.324Z,183.70
2019-03-01T07:21:32.111Z,191.60
2019-03-01T07:24:01.416Z,186.03
2019-03-01T07:26:33.681Z,186.77
2019-03-01T07:29:32.509Z,200.85
2019-03-01T07:32:31.713Z,192.82
2019-03-01T07:38:32.841Z,199.32
2019-03-01T07:41:32.080Z,203.52
2019-03-01T07:56:36.951Z,180.97
2019-03-01T07:59:37.925Z,194.02
2019-03-01T08:02:30.351Z,179.90
2019-03-01T08:07:55.716Z,163.05
2019-03-01T08:10:32.654Z,157.75
2019-03-01T08:15:48.760Z,158.22
2019-03-01T08:18:30.259Z,157.72
2019-03-01T08:23:46.513Z,155.30
2019-03-01T08:29:34.042Z,152.82
2019-03-01T08:32:33.258Z,146.37
2019-03-01T08:35:32.412Z,143.80
2019-03-01T08:38:33.305Z,154.32
2019-03-01T08:41:32.602Z,150.05
2019-03-01T08:44:31.506Z,153.40
2019-03-01T08:47:33.703Z,163.95
2019-03-01T08:50:32.848Z,156.90
2019-03-01T08:53:31.803Z,149.85
2019-03-01T08:56:34.114Z,159.97
2019-03-01T08:59:33.268Z,156.70
2019-03-01T09:02:32.202Z,160.32
2019-03-01T09:05:34.009Z,164.00
2019-03-01T09:11:32.534Z,163.07
2019-03-01T09:14:01.827Z,163.72
2019-03-01T09:16:34.156Z,166.12
2019-03-01T09:19:33.188Z,169.62
2019-03-01T09:22:33.714Z,176.60
2019-03-01T09:25:32.743Z,163.70
2019-03-01T09:28:32.742Z,157.88
2019-03-01T09:31:02.636Z,173.43
2019-03-01T09:33:34.708Z,172.95
2019-03-01T09:36:40.478Z,161.25
2019-03-01T09:39:32.642Z,170.77
2019-03-01T09:44:49.107Z,177.75
2019-03-01T09:47:36.822Z,174.40
2019-03-01T09:50:34.263Z,174.75
2019-03-01T09:53:34.128Z,161.52
2019-03-01T09:59:37.346Z,164.62
2019-03-01T10:02:33.283Z,158.27
2019-03-01T10:08:34.631Z,157.95
2019-03-01T10:11:33.575Z,154.55
2019-03-01T10:14:02.950Z,162.47
2019-03-01T10:16:35.339Z,169.65
2019-03-01T10:19:04.634Z,163.05
2019-03-01T10:21:33.920Z,156.00
2019-03-01T10:24:03.213Z,152.60
2019-03-01T10:26:32.547Z,141.45
2019-03-01T10:29:01.872Z,148.57
2019-03-01T10:31:31.126Z,147.70
2019-03-01T10:34:00.372Z,140.10
2019-03-01T10:36:29.652Z,143.15
2019-03-01T10:38:58.985Z,145.95
2019-03-01T10:41:28.307Z,143.52
2019-03-01T10:43:57.600Z,142.32
2019-03-01T10:46:26.924Z,132.65
2019-03-01T10:48:56.177Z,133.40
2019-03-01T10:51:25.494Z,128.47
2019-03-01T10:53:54.805Z,135.70
2019-03-01T10:56:24.068Z,142.50
2019-03-01T10:58:53.368Z,159.48
2019-03-01T11:01:22.660Z,145.45
2019-03-01T11:03:51.953Z,142.57
2019-03-01T11:06:21.259Z,152.75
2019-03-01T11:16:31.463Z,162.53
2019-03-01T12:14:30.475Z,50.48
2019-03-01T12:28:30.353Z,38.80
2019-03-01T13:22:30.807Z,26.68
2019-03-01T13:50:30.602Z,30.88
2019-03-01T14:11:32.272Z,33.78
2019-03-01T14:14:31.564Z,31.50
2019-03-01T14:21:33.059Z,30.88
2019-03-01T14:28:29.497Z,37.10
2019-03-01T14:58:49.036Z,35.68
2019-03-01T15:01:26.855Z,33.55
2019-03-01T15:03:54.719Z,29.35
2019-03-01T15:06:24.017Z,37.17
2019-03-01T15:08:53.432Z,30.45
2019-03-01T15:11:23.399Z,28.38
2019-03-01T15:13:53.960Z,32.40
2019-03-01T15:16:23.276Z,32.85
2019-03-01T15:18:52.537Z,37.35
2019-03-01T15:21:21.879Z,32.38
2019-03-01T15:31:31.651Z,25.08
2019-03-01T15:44:32.508Z,26.82
2019-03-01T15:47:31.771Z,23.18
2019-03-01T15:50:34.144Z,26.02
2019-03-01T16:04:33.628Z,23.60
2019-03-01T16:17:29.393Z,22.00
2019-03-01T16:20:31.684Z,20.37
2019-03-01T16:27:31.510Z,17.32
2019-03-01T16:30:33.486Z,13.70
2019-03-01T16:40:32.549Z,13.00
2019-03-01T17:04:32.686Z,13.30
2019-03-01T17:18:29.549Z,11.45
2019-03-01T17:21:31.880Z,11.18
2019-03-01T17:24:33.954Z,10.08
2019-03-01T17:45:33.317Z,16.10
2019-03-01T17:48:32.377Z,14.87
2019-03-01T17:51:31.610Z,14.55
2019-03-01T18:06:34.405Z,12.65
2019-03-01T18:09:33.622Z,14.03
2019-03-01T18:12:32.566Z,9.30
2019-03-01T18:29:30.448Z,11.38
2019-03-01T18:36:31.561Z,10.32
2019-03-01T18:39:03.773Z,11.15
2019-03-01T18:41:31.861Z,9.65
2019-03-01T18:44:30.590Z,11.53
2019-03-01T18:47:00.366Z,12.53
2019-03-01T18:49:29.652Z,14.40
2019-03-01T18:52:31.541Z,13.88
2019-03-01T18:57:47.675Z,16.42
2019-03-01T19:00:25.544Z,13.50
2019-03-01T19:02:54.935Z,17.85
2019-03-01T19:05:36.620Z,18.10
2019-03-01T19:08:36.405Z,19.17
2019-03-01T19:11:34.672Z,14.33
2019-03-01T19:14:03.233Z,12.53
2019-03-01T19:16:32.552Z,19.67
2019-03-01T19:19:01.914Z,17.40
2019-03-01T19:21:31.254Z,17.02
2019-03-01T19:24:00.636Z,16.00
2019-03-01T19:26:29.960Z,17.23
2019-03-01T19:29:02.696Z,17.02
2019-03-01T19:31:30.248Z,14.93
2019-03-01T19:33:59.637Z,18.87
2019-03-01T19:36:28.921Z,18.62
2019-03-01T19:42:37.966Z,20.12
2019-03-01T19:45:34.098Z,18.58
2019-03-01T19:48:34.497Z,19.62
2019-03-01T19:51:33.780Z,20.10
2019-03-01T19:54:35.674Z,23.32
2019-03-01T19:57:33.623Z,24.60
2019-03-01T20:00:32.509Z,23.95
2019-03-01T20:03:31.729Z,27.65
2019-03-01T20:06:33.833Z,26.30
2019-03-01T20:09:32.851Z,27.73
2019-03-01T20:12:32.117Z,26.62
2019-03-01T20:15:34.382Z,29.15
2019-03-01T20:18:33.341Z,24.37
2019-03-01T20:21:32.334Z,23.73
2019-03-01T20:24:31.488Z,26.55
2019-03-01T20:27:35.506Z,26.87
2019-03-01T20:30:31.697Z,42.67
2019-03-01T20:33:33.840Z,60.10
2019-03-01T20:36:32.791Z,51.83
2019-03-01T20:44:36.018Z,23.35
2019-03-01T20:47:32.259Z,21.52
2019-03-01T20:50:36.418Z,20.15
2019-03-01T20:53:32.074Z,20.50
2019-03-01T20:56:34.135Z,18.75
2019-03-01T20:59:33.054Z,17.15
2019-03-01T21:06:34.050Z,18.87
2019-03-01T21:09:32.958Z,17.70
2019-03-01T21:12:33.460Z,15.80
2019-03-01T21:15:34.609Z,17.57
2019-03-01T21:18:34.096Z,19.82
2019-03-01T21:21:33.944Z,17.30
2019-03-01T21:30:39.871Z,15.68
2019-03-01T21:33:32.769Z,17.65
2019-03-01T21:39:32.723Z,16.85
2019-03-01T21:42:31.676Z,17.37
2019-03-01T21:45:30.558Z,20.17
2019-03-01T21:48:32.796Z,17.02
2019-03-01T21:51:31.891Z,16.30
2019-03-01T21:54:34.168Z,14.55
2019-03-01T21:57:33.073Z,16.82
2019-03-01T22:00:31.188Z,16.05
2019-03-01T22:03:32.936Z,15.55
2019-03-01T22:06:31.962Z,14.30
2019-03-01T22:09:33.928Z,16.52
2019-03-01T22:12:32.793Z,16.85
2019-03-01T22:15:32.101Z,13.95
2019-03-01T22:18:31.174Z,14.28
2019-03-01T22:21:33.064Z,14.87
2019-03-01T22:24:34.126Z,14.10
2019-03-01T22:27:32.751Z,14.50
2019-03-01T22:30:31.711Z,14.85
2019-03-01T22:33:33.729Z,14.45
2019-03-01T22:36:32.676Z,12.03
2019-03-01T22:39:31.623Z,17.15
2019-03-01T22:42:33.626Z,15.03
2019-03-01T22:45:32.847Z,11.45
2019-03-01T22:48:32.038Z,11.88
2019-03-01T23:01:32.730Z,13.27
2019-03-01T23:04:30.388Z,14.93
2019-03-01T23:07:32.552Z,14.35
2019-03-01T23:10:31.415Z,12.07
2019-03-01T23:13:33.303Z,13.75
2019-03-01T23:16:32.121Z,12.03
2019-03-01T23:29:32.942Z,16.07
2019-03-01T23:34:48.935Z,15.55
2019-03-01T23:37:18.240Z,14.73
2019-03-01T23:39:48.547Z,17.55
2019-03-01T23:42:20.875Z,15.18
2019-03-01T23:44:48.949Z,16.60
2019-03-01T23:47:18.267Z,17.73
2019-03-01T23:49:47.547Z,15.98
2019-03-01T23:52:19.564Z,15.20
